Time;durP1;ratioP1;P1;durP2;ratioP2;P2;SDS_P1;SDS_P2;PMS_P1;PMS_P2;Temp;Humidity;BMP_temperature;BMP_pressure;BME280_temperature;BME280_humidity;BME280_pressure;Samples;Min_cycle;Max_cycle;Signal;HPM_P1;HPM_P2
2023/05/21 00:01:28;;;;;;;14.68;9.38;;;;;;;19.53;54.31;99258.91;4330141;33;34224;-96
2023/05/21 00:03:58;;;;;;;14.13;9.30;;;;;;;19.65;53.91;99257.81;4330849;33;33651;-94
2023/05/21 00:06:26;;;;;;;13.82;8.65;;;;;;;19.84;53.35;99258.25;4318624;33;33990;-94
2023/05/21 00:08:54;;;;;;;15.35;9.35;;;;;;;19.95;53.24;99256.22;4312845;33;34269;-93
2023/05/21 00:11:22;;;;;;;14.27;8.70;;;;;;;19.42;54.50;99259.16;4346599;33;34106;-95
2023/05/21 00:13:50;;;;;;;15.13;9.18;;;;;;;19.51;54.33;99262.47;4333156;33;33053;-94
2023/05/21 00:16:17;;;;;;;12.85;7.93;;;;;;;19.64;54.00;99271.88;4324203;33;32722;-94
2023/05/21 00:18:48;;;;;;;16.98;9.07;;;;;;;19.49;54.48;99261.66;4323036;33;34968;-95
2023/05/21 00:21:16;;;;;;;16.60;9.50;;;;;;;19.33;55.01;99259.34;4321418;33;34008;-95
2023/05/21 00:23:44;;;;;;;13.70;8.40;;;;;;;19.32;55.41;99262.88;4320248;33;34188;-94
2023/05/21 00:26:11;;;;;;;14.23;8.98;;;;;;;19.36;55.00;99269.81;4318280;33;33841;-93
2023/05/21 00:28:41;;;;;;;14.05;9.57;;;;;;;18.99;56.17;99274.94;4336472;33;35300;-93
2023/05/21 00:31:09;;;;;;;15.15;9.25;;;;;;;19.30;55.54;99280.44;4346010;33;34073;-94
2023/05/21 00:33:36;;;;;;;14.80;9.80;;;;;;;19.07;56.03;99272.16;4346545;32;33484;-94
2023/05/21 00:36:04;;;;;;;13.82;9.90;;;;;;;19.05;56.26;99273.94;4345236;33;34103;-93
2023/05/21 00:38:32;;;;;;;13.48;9.13;;;;;;;18.89;56.57;99279.50;4341019;33;34012;-95
2023/05/21 00:41:03;;;;;;;11.88;8.93;;;;;;;19.16;56.16;99274.59;4333205;33;33976;-94
2023/05/21 00:43:31;;;;;;;14.40;9.65;;;;;;;18.95;56.45;99274.16;4320677;33;34440;-94
2023/05/21 00:45:58;;;;;;;14.02;9.38;;;;;;;18.63;57.50;99276.47;4332696;33;33480;-93
2023/05/21 00:48:26;;;;;;;12.20;9.20;;;;;;;18.91;56.60;99272.47;4328519;33;34061;-94
2023/05/21 00:50:54;;;;;;;15.38;9.40;;;;;;;18.76;57.16;99267.50;4331411;33;34157;-96
2023/05/21 00:53:21;;;;;;;17.02;9.95;;;;;;;18.93;56.81;99265.41;4318132;33;33786;-94
2023/05/21 00:55:49;;;;;;;13.07;9.07;;;;;;;19.27;55.83;99258.62;4318295;33;33732;-94
2023/05/21 00:58:18;;;;;;;15.45;9.35;;;;;;;19.12;55.88;99262.41;4321295;33;33760;-95
2023/05/21 01:00:46;;;;;;;15.13;9.50;;;;;;;18.85;56.79;99262.06;4338612;33;34748;-96
2023/05/21 01:03:15;;;;;;;12.82;8.32;;;;;;;19.05;56.20;99252.94;4318383;33;33725;-94
2023/05/21 01:05:43;;;;;;;14.23;9.38;;;;;;;19.38;55.18;99254.00;4331396;33;33690;-95
2023/05/21 01:08:11;;;;;;;13.98;9.55;;;;;;;19.23;55.54;99260.44;4333316;33;35497;-94
2023/05/21 01:10:39;;;;;;;20.20;9.02;;;;;;;18.47;57.65;99261.00;4331893;33;34854;-93
2023/05/21 01:13:07;;;;;;;15.52;9.35;;;;;;;18.50;57.89;99253.97;4317029;33;34508;-93
2023/05/21 01:15:37;;;;;;;14.50;9.68;;;;;;;18.57;57.58;99247.72;4306182;33;33854;-94
2023/05/21 01:18:06;;;;;;;12.60;8.52;;;;;;;18.40;57.88;99250.62;4342178;33;33723;-94
2023/05/21 01:20:34;;;;;;;12.00;8.50;;;;;;;18.67;57.51;99244.88;4331137;33;34517;-94
2023/05/21 01:23:01;;;;;;;14.32;9.45;;;;;;;19.22;55.82;99245.56;4331459;33;33681;-95
2023/05/21 01:25:29;;;;;;;11.95;8.90;;;;;;;19.10;55.98;99240.59;4332230;33;34406;-94
2023/05/21 01:27:57;;;;;;;16.08;9.07;;;;;;;19.24;55.60;99243.75;4318213;33;33799;-94
2023/05/21 01:30:26;;;;;;;13.05;8.63;;;;;;;19.05;55.95;99245.03;4330534;33;33794;-94
2023/05/21 01:32:57;;;;;;;14.32;8.35;;;;;;;19.10;55.94;99240.59;4330108;33;33219;-94
2023/05/21 01:35:28;;;;;;;12.68;8.80;;;;;;;18.64;57.40;99242.31;4345869;33;33590;-93
2023/05/21 01:38:02;;;;;;;15.93;8.93;;;;;;;18.86;56.86;99241.91;4330969;33;33723;-94
2023/05/21 01:40:37;;;;;;;11.57;8.38;;;;;;;18.73;56.98;99238.69;4345794;33;34740;-93
2023/05/21 01:43:06;;;;;;;11.10;8.93;;;;;;;18.56;57.47;99233.72;4331772;33;32806;-96
2023/05/21 01:45:36;;;;;;;16.48;9.75;;;;;;;18.46;57.91;99240.88;4320675;33;34048;-94
2023/05/21 01:48:06;;;;;;;12.18;8.65;;;;;;;18.12;58.67;99250.25;4331772;33;34050;-95
2023/05/21 01:50:36;;;;;;;12.85;8.82;;;;;;;18.39;57.89;99244.50;4319378;33;34892;-95
2023/05/21 01:53:04;;;;;;;17.33;9.27;;;;;;;18.31;58.12;99242.94;4318168;33;33237;-93
2023/05/21 01:55:32;;;;;;;14.85;9.13;;;;;;;18.19;58.43;99244.00;4305862;33;33486;-94
2023/05/21 01:58:01;;;;;;;10.80;8.23;;;;;;;18.20;58.17;99240.47;4338316;33;34144;-94
2023/05/21 02:00:31;;;;;;;12.00;8.95;;;;;;;18.33;57.97;99246.37;4320380;33;34145;-95
2023/05/21 02:02:59;;;;;;;13.93;8.77;;;;;;;18.33;57.82;99241.97;4319998;33;34522;-95
2023/05/21 02:05:27;;;;;;;16.90;8.90;;;;;;;18.16;58.05;99242.28;4315369;33;33956;-93
2023/05/21 02:07:55;;;;;;;15.20;8.95;;;;;;;18.42;57.50;99240.97;4322552;33;33596;-93
2023/05/21 02:10:23;;;;;;;12.70;8.63;;;;;;;18.20;58.07;99245.72;4330897;33;34248;-94
2023/05/21 02:12:51;;;;;;;11.82;9.05;;;;;;;17.96;59.02;99252.25;4320739;33;33741;-94
2023/05/21 02:15:18;;;;;;;14.68;8.90;;;;;;;17.79;59.36;99255.13;4324192;33;34345;-94
2023/05/21 02:17:50;;;;;;;14.90;8.77;;;;;;;17.96;58.97;99242.62;4331006;33;34214;-94
2023/05/21 02:20:18;;;;;;;12.85;9.35;;;;;;;18.19;58.18;99244.00;4317390;33;33768;-94
2023/05/21 02:22:46;;;;;;;11.90;8.88;;;;;;;18.05;58.56;99243.34;4328277;33;34479;-93
2023/05/21 02:25:15;;;;;;;12.95;8.40;;;;;;;18.28;57.79;99245.59;4313206;33;34100;-94
2023/05/21 02:27:45;;;;;;;17.35;8.55;;;;;;;18.31;57.77;99237.69;4315034;33;34323;-94
2023/05/21 02:30:14;;;;;;;11.45;8.52;;;;;;;18.19;57.76;99244.88;4314991;33;33774;-94
2023/05/21 02:32:43;;;;;;;14.02;8.95;;;;;;;18.44;57.54;99234.78;4319940;33;34469;-94
2023/05/21 02:35:12;;;;;;;12.93;8.95;;;;;;;17.84;58.65;99242.81;4316901;33;33658;-93
2023/05/21 02:37:39;;;;;;;17.02;9.50;;;;;;;18.46;57.18;99238.25;4320858;33;33434;-94
2023/05/21 02:40:08;;;;;;;14.82;8.70;;;;;;;18.32;57.74;99235.00;4328786;33;34985;-93
2023/05/21 02:42:38;;;;;;;11.95;8.27;;;;;;;18.43;57.01;99227.81;4323310;33;34651;-93
2023/05/21 02:45:11;;;;;;;13.40;9.18;;;;;;;18.32;57.15;99244.66;4314922;33;34913;-94
2023/05/21 02:47:39;;;;;;;13.15;8.73;;;;;;;18.36;57.05;99241.94;4316430;33;33783;-94
2023/05/21 02:50:08;;;;;;;12.10;9.48;;;;;;;18.06;58.08;99240.69;4314951;33;34014;-94
2023/05/21 02:52:37;;;;;;;11.50;8.35;;;;;;;18.14;57.84;99248.44;4321203;33;34214;-95
2023/05/21 02:55:05;;;;;;;11.68;9.13;;;;;;;18.19;57.80;99237.00;4324204;33;33974;-94
2023/05/21 02:57:33;;;;;;;14.48;8.60;;;;;;;17.90;58.44;99234.84;4315811;33;34229;-93
2023/05/21 03:00:00;;;;;;;12.25;8.32;;;;;;;18.44;57.04;99234.78;4320330;33;34333;-93
2023/05/21 03:02:29;;;;;;;12.37;7.70;;;;;;;18.18;57.57;99239.63;4289511;33;32947;-95
2023/05/21 03:04:57;;;;;;;16.98;8.95;;;;;;;18.46;56.74;99240.88;4314191;33;34694;-94
2023/05/21 03:07:24;;;;;;;14.90;8.82;;;;;;;18.31;57.46;99233.28;4315764;33;34188;-93
2023/05/21 03:09:53;;;;;;;12.73;8.40;;;;;;;18.09;57.34;99238.03;4320812;33;34901;-93
2023/05/21 03:12:21;;;;;;;13.32;8.82;;;;;;;17.95;58.23;99242.62;4314601;33;33326;-94
2023/05/21 03:14:50;;;;;;;13.07;9.43;;;;;;;17.35;59.85;99246.13;4314593;33;32561;-94
2023/05/21 03:17:19;;;;;;;14.93;8.48;;;;;;;17.55;59.28;99239.72;4314512;33;33784;-93
2023/05/21 03:19:47;;;;;;;12.80;9.15;;;;;;;17.54;58.99;99235.34;4318962;33;34863;-94
2023/05/21 03:22:15;;;;;;;15.25;7.78;;;;;;;17.61;59.20;99234.38;4330319;33;33863;-95
2023/05/21 03:24:45;;;;;;;12.65;8.32;;;;;;;17.65;58.85;99241.31;4317263;33;33374;-93
2023/05/21 03:27:12;;;;;;;12.10;8.45;;;;;;;17.96;58.19;99232.13;4330711;33;33791;-94
2023/05/21 03:29:42;;;;;;;13.38;8.98;;;;;;;17.96;58.01;99237.38;4325562;33;34220;-95
2023/05/21 03:32:09;;;;;;;16.10;8.40;;;;;;;17.83;58.29;99230.56;4315172;33;33334;-94
2023/05/21 03:34:37;;;;;;;12.55;8.23;;;;;;;17.90;58.29;99232.22;4328977;33;34471;-94
2023/05/21 03:37:05;;;;;;;13.27;7.95;;;;;;;18.13;57.26;99226.59;4326741;33;33915;-94
2023/05/21 03:39:33;;;;;;;12.70;8.18;;;;;;;18.11;57.30;99236.25;4316189;33;34022;-95
2023/05/21 03:42:00;;;;;;;11.80;8.13;;;;;;;18.16;57.03;99237.03;4316415;33;34459;-94
2023/05/21 03:44:31;;;;;;;14.43;8.35;;;;;;;18.15;57.38;99230.06;4317220;33;33419;-95
2023/05/21 03:46:59;;;;;;;13.48;7.75;;;;;;;18.21;56.86;99231.72;4307636;33;34206;-94
2023/05/21 03:49:27;;;;;;;13.05;8.43;;;;;;;18.35;56.71;99234.09;4315675;33;33782;-94
2023/05/21 03:51:55;;;;;;;11.15;8.07;;;;;;;18.16;57.08;99238.81;4317427;33;33769;-94
2023/05/21 03:54:23;;;;;;;11.15;8.25;;;;;;;18.18;56.89;99235.28;4315983;33;33523;-93
2023/05/21 03:56:50;;;;;;;12.18;7.72;;;;;;;18.30;56.40;99238.56;4322622;33;33669;-95
2023/05/21 03:59:18;;;;;;;11.10;7.07;;;;;;;18.20;56.66;99237.84;4316217;33;34173;-95
2023/05/21 04:01:46;;;;;;;10.35;7.45;;;;;;;18.36;55.87;99239.31;4317670;33;34553;-93
2023/05/21 04:04:15;;;;;;;11.73;7.35;;;;;;;18.17;56.43;99236.13;4318568;33;32810;-94
2023/05/21 04:06:43;;;;;;;12.63;8.02;;;;;;;18.11;56.74;99243.28;4315513;33;34057;-93
2023/05/21 04:09:10;;;;;;;11.25;7.82;;;;;;;18.10;56.81;99237.13;4317402;33;35331;-94
2023/05/21 04:11:38;;;;;;;11.55;7.35;;;;;;;18.31;56.17;99240.31;4317425;33;34950;-94
2023/05/21 04:14:06;;;;;;;13.93;7.65;;;;;;;17.63;57.94;99251.81;4318974;33;33920;-93
2023/05/21 04:16:34;;;;;;;10.57;7.40;;;;;;;17.74;57.50;99251.69;4331208;33;35311;-94
2023/05/21 04:19:03;;;;;;;11.38;7.80;;;;;;;18.23;56.53;99236.03;4332863;33;34871;-94
2023/05/21 04:21:31;;;;;;;10.00;7.07;;;;;;;18.34;55.88;99254.25;4332062;33;33389;-95
2023/05/21 04:23:59;;;;;;;11.80;6.47;;;;;;;18.56;54.93;99243.34;4316025;33;34147;-94
2023/05/21 04:26:28;;;;;;;10.27;6.93;;;;;;;18.71;55.27;99248.34;4303862;33;34008;-94
2023/05/21 04:28:58;;;;;;;11.07;7.10;;;;;;;18.95;53.94;99247.88;4316085;33;33530;-94
2023/05/21 04:31:25;;;;;;;13.82;7.07;;;;;;;19.38;53.77;99244.34;4317262;33;34448;-94
2023/05/21 04:33:53;;;;;;;10.30;6.85;;;;;;;19.69;53.20;99248.94;4329573;33;34014;-94
2023/05/21 04:36:21;;;;;;;11.32;6.43;;;;;;;20.21;50.68;99238.94;4317133;33;34944;-94
2023/05/21 04:38:48;;;;;;;11.90;6.43;;;;;;;20.23;51.09;99243.28;4331912;33;35228;-94
2023/05/21 04:41:17;;;;;;;11.57;6.25;;;;;;;20.78;50.61;99240.97;4328730;33;33469;-94
2023/05/21 04:43:45;;;;;;;9.75;6.30;;;;;;;20.40;50.04;99235.78;4315636;33;34927;-92
2023/05/21 04:46:13;;;;;;;16.40;7.12;;;;;;;20.80;49.00;99240.03;4317365;33;34930;-94
2023/05/21 04:48:41;;;;;;;12.05;6.75;;;;;;;20.88;49.53;99240.69;4309617;33;34591;-94
2023/05/21 04:51:09;;;;;;;11.63;6.18;;;;;;;20.74;49.83;99236.69;4327757;33;33547;-95
2023/05/21 04:53:37;;;;;;;9.43;6.35;;;;;;;20.84;49.53;99235.56;4331972;33;34015;-94
2023/05/21 04:56:08;;;;;;;11.32;6.57;;;;;;;20.54;50.24;99239.87;4316340;33;34578;-96
2023/05/21 04:58:39;;;;;;;10.00;6.43;;;;;;;20.36;51.25;99244.69;4303603;33;35042;-93
2023/05/21 05:01:07;;;;;;;11.68;7.12;;;;;;;20.32;50.71;99243.03;4315777;33;33684;-95
2023/05/21 05:03:35;;;;;;;14.82;7.07;;;;;;;20.86;50.11;99244.25;4297996;33;33696;-94
2023/05/21 05:06:03;;;;;;;9.90;6.28;;;;;;;20.94;49.37;99238.78;4304927;33;33668;-95
2023/05/21 05:08:31;;;;;;;9.90;6.35;;;;;;;21.02;48.77;99239.41;4315341;33;33336;-94
2023/05/21 05:10:59;;;;;;;11.43;6.43;;;;;;;20.82;49.35;99238.22;4315940;33;34107;-92
2023/05/21 05:13:27;;;;;;;8.85;6.03;;;;;;;21.42;49.13;99244.44;4313855;33;32471;-94
2023/05/21 05:15:56;;;;;;;9.80;6.35;;;;;;;21.38;48.55;99243.66;4303502;33;33138;-93
2023/05/21 05:18:23;;;;;;;11.02;6.37;;;;;;;21.38;48.99;99246.28;4306319;33;32778;-94
2023/05/21 05:20:51;;;;;;;8.75;5.50;;;;;;;21.78;48.29;99241.56;4318226;33;33729;-94
2023/05/21 05:23:19;;;;;;;10.25;6.45;;;;;;;22.06;47.22;99230.97;4293820;33;32649;-94
2023/05/21 05:25:46;;;;;;;9.30;6.12;;;;;;;21.45;47.84;99232.94;4315328;33;34181;-95
2023/05/21 05:28:14;;;;;;;11.52;6.28;;;;;;;21.29;48.91;99233.34;4316572;33;33344;-95
2023/05/21 05:30:42;;;;;;;12.10;6.12;;;;;;;22.06;47.87;99233.63;4291576;33;34267;-94
2023/05/21 05:33:10;;;;;;;9.98;6.68;;;;;;;21.41;47.90;99239.22;4287514;33;33160;-96
2023/05/21 05:35:38;;;;;;;11.38;5.78;;;;;;;21.57;48.05;99237.81;4316409;33;35394;-96
2023/05/21 05:38:07;;;;;;;14.65;6.50;;;;;;;21.62;48.65;99241.16;4318231;33;34075;-95
2023/05/21 05:40:35;;;;;;;8.55;5.87;;;;;;;21.86;47.59;99234.28;4297882;33;32418;-94
2023/05/21 05:43:03;;;;;;;9.85;6.35;;;;;;;21.47;48.21;99244.28;4293844;33;34134;-95
2023/05/21 05:45:31;;;;;;;9.88;5.82;;;;;;;21.74;47.98;99248.69;4303416;33;33303;-95
2023/05/21 05:48:00;;;;;;;10.07;5.43;;;;;;;21.69;47.96;99247.13;4295230;33;33578;-93
2023/05/21 05:50:28;;;;;;;11.40;6.07;;;;;;;21.27;48.25;99250.12;4315485;33;34670;-92
2023/05/21 05:52:56;;;;;;;9.40;5.80;;;;;;;21.28;47.88;99250.06;4316616;33;33571;-94
2023/05/21 05:55:25;;;;;;;11.10;5.45;;;;;;;21.55;47.94;99240.50;4329101;33;34294;-94
2023/05/21 05:57:53;;;;;;;10.57;5.47;;;;;;;21.25;48.10;99242.28;4339896;33;34712;-92
2023/05/21 06:00:21;;;;;;;11.82;6.07;;;;;;;21.30;47.78;99228.94;4316336;33;34459;-91
2023/05/21 06:02:48;;;;;;;7.97;5.62;;;;;;;21.03;47.65;99230.63;4316096;33;33936;-89
2023/05/21 06:05:16;;;;;;;7.03;4.78;;;;;;;21.48;47.37;99235.44;4329083;33;34089;-90
2023/05/21 06:07:44;;;;;;;11.75;5.32;;;;;;;21.44;46.96;99233.81;4331044;33;34673;-89
2023/05/21 06:10:12;;;;;;;10.57;5.75;;;;;;;21.43;47.59;99234.72;4318247;33;33234;-87
2023/05/21 06:12:39;;;;;;;8.55;4.85;;;;;;;21.85;46.08;99228.09;4316686;33;34532;-89
2023/05/21 06:15:08;;;;;;;10.07;4.90;;;;;;;21.95;45.77;99227.81;4317329;33;34177;-88
2023/05/21 06:17:36;;;;;;;7.47;5.05;;;;;;;21.96;45.74;99229.53;4316390;33;34510;-89
2023/05/21 06:20:04;;;;;;;10.10;4.90;;;;;;;22.08;45.80;99229.13;4316666;33;33511;-88
2023/05/21 06:22:32;;;;;;;9.00;5.05;;;;;;;22.03;45.94;99231.06;4316401;33;34004;-88
2023/05/21 06:25:00;;;;;;;9.98;5.57;;;;;;;22.10;45.56;99237.88;4319763;33;33926;-87
2023/05/21 06:27:27;;;;;;;9.02;5.45;;;;;;;22.11;45.80;99244.88;4323581;33;33971;-89
2023/05/21 06:29:56;;;;;;;8.25;5.05;;;;;;;22.17;44.40;99234.16;4316505;33;33367;-89
2023/05/21 06:32:24;;;;;;;11.15;5.20;;;;;;;22.51;44.51;99230.38;4316236;33;33977;-88
2023/05/21 06:34:51;;;;;;;8.43;5.25;;;;;;;22.50;44.30;99225.97;4320972;33;34085;-89
2023/05/21 06:37:20;;;;;;;9.75;5.45;;;;;;;22.27;44.47;99234.69;4330145;33;34991;-90
2023/05/21 06:39:48;;;;;;;9.07;4.80;;;;;;;22.51;44.12;99230.38;4323538;33;32849;-91
2023/05/21 06:42:16;;;;;;;8.95;4.85;;;;;;;22.93;44.13;99225.34;4316172;33;33939;-89
2023/05/21 06:44:45;;;;;;;8.77;4.60;;;;;;;23.15;43.82;99224.56;4316957;33;34151;-88
2023/05/21 06:47:13;;;;;;;7.30;5.35;;;;;;;23.33;42.93;99215.91;4316477;33;34731;-91
2023/05/21 06:49:40;;;;;;;7.45;4.32;;;;;;;23.14;43.52;99218.41;4318959;33;33563;-91
2023/05/21 06:52:08;;;;;;;10.65;4.85;;;;;;;23.96;43.93;99209.03;4317469;33;34581;-90
2023/05/21 06:54:36;;;;;;;11.70;5.37;;;;;;;24.37;42.17;99209.06;4329988;33;34581;-91
2023/05/21 06:57:03;;;;;;;9.85;5.10;;;;;;;24.77;41.02;99202.03;4328479;33;34367;-86
2023/05/21 06:59:31;;;;;;;7.07;4.57;;;;;;;24.26;41.15;99204.22;4324102;33;34444;-90
2023/05/21 07:02:00;;;;;;;8.63;4.80;;;;;;;24.51;41.86;99205.88;4315820;33;34171;-86
2023/05/21 07:04:30;;;;;;;7.15;4.28;;;;;;;24.96;41.55;99199.41;4315942;33;33832;-91
2023/05/21 07:06:58;;;;;;;11.27;5.28;;;;;;;24.78;39.73;99201.13;4315458;33;34898;-90
2023/05/21 07:09:26;;;;;;;9.55;4.78;;;;;;;24.62;39.38;99200.94;4316035;33;33520;-91
2023/05/21 07:11:53;;;;;;;7.80;4.82;;;;;;;24.52;40.72;99207.59;4313407;33;35056;-90
2023/05/21 07:14:23;;;;;;;9.02;5.18;;;;;;;23.75;41.62;99205.47;4316739;33;35233;-92
2023/05/21 07:16:52;;;;;;;7.37;4.62;;;;;;;24.32;42.14;99191.63;4317874;33;34812;-90
2023/05/21 07:19:20;;;;;;;8.40;4.85;;;;;;;24.03;40.81;99197.25;4324563;33;33706;-91
2023/05/21 07:21:48;;;;;;;10.98;5.05;;;;;;;25.12;40.53;99197.84;4330442;33;33783;-91
2023/05/21 07:24:16;;;;;;;8.25;4.78;;;;;;;24.71;40.48;99197.03;4326317;33;34252;-90
2023/05/21 07:26:43;;;;;;;10.30;4.82;;;;;;;25.00;41.41;99201.00;4328084;33;33948;-92
2023/05/21 07:29:11;;;;;;;10.60;4.70;;;;;;;24.72;40.40;99204.03;4315451;33;33575;-91
2023/05/21 07:31:39;;;;;;;7.20;4.62;;;;;;;24.99;41.34;99196.62;4324568;33;34692;-91
2023/05/21 07:34:06;;;;;;;9.63;5.15;;;;;;;25.36;40.10;99194.97;4325002;33;180379;-90
2023/05/21 07:36:34;;;;;;;7.68;5.07;;;;;;;25.28;39.39;99194.47;4330361;33;33955;-88
2023/05/21 07:39:02;;;;;;;10.20;5.15;;;;;;;25.76;39.65;99195.69;4329778;33;34316;-89
2023/05/21 07:41:31;;;;;;;8.88;4.90;;;;;;;25.32;38.67;99198.69;4317896;33;33681;-90
2023/05/21 07:44:00;;;;;;;9.98;5.22;;;;;;;25.44;40.01;99187.50;4329029;33;34234;-89
2023/05/21 07:46:28;;;;;;;11.73;5.22;;;;;;;25.53;39.41;99186.19;4329936;33;33969;-91
2023/05/21 07:48:55;;;;;;;8.43;4.82;;;;;;;25.76;39.90;99188.59;4316053;33;33297;-91
2023/05/21 07:51:25;;;;;;;7.60;4.82;;;;;;;25.20;38.11;99187.72;4315793;33;33492;-91
2023/05/21 07:53:52;;;;;;;9.02;4.87;;;;;;;24.68;39.82;99192.72;4315299;33;35042;-92
2023/05/21 07:56:22;;;;;;;7.60;4.60;;;;;;;24.82;39.65;99180.66;4314178;33;35010;-93
2023/05/21 07:58:51;;;;;;;8.65;4.40;;;;;;;24.86;39.57;99184.87;4319049;33;34447;-91
2023/05/21 08:01:18;;;;;;;7.65;4.78;;;;;;;24.73;39.68;99190.72;4329031;33;33235;-91
2023/05/21 08:03:46;;;;;;;6.93;4.85;;;;;;;24.61;40.21;99188.59;4328263;33;34223;-90
2023/05/21 08:06:14;;;;;;;8.98;5.10;;;;;;;24.15;39.78;99179.13;4329697;33;34338;-91
2023/05/21 08:08:41;;;;;;;15.95;5.10;;;;;;;24.61;40.31;99185.97;4326626;33;33750;-90
2023/05/21 08:11:09;;;;;;;8.13;4.37;;;;;;;24.49;39.37;99191.81;4327219;33;34937;-91
2023/05/21 08:13:37;;;;;;;11.00;4.70;;;;;;;24.62;39.34;99195.63;4321188;33;34603;-87
2023/05/21 08:16:05;;;;;;;12.07;5.53;;;;;;;24.22;40.02;99199.97;4333130;33;34810;-93
2023/05/21 08:18:36;;;;;;;8.38;4.80;;;;;;;24.19;39.90;99188.66;4328110;33;33819;-92
2023/05/21 08:21:03;;;;;;;11.65;5.00;;;;;;;24.08;39.66;99197.03;4327931;33;34064;-89
2023/05/21 08:23:31;;;;;;;10.18;4.97;;;;;;;24.34;40.95;99189.78;4330006;33;34144;-92
2023/05/21 08:25:59;;;;;;;9.02;5.07;;;;;;;24.14;40.83;99188.00;4331321;33;33856;-93
2023/05/21 08:28:27;;;;;;;9.77;5.28;;;;;;;24.50;40.92;99185.56;4330249;33;34347;-89
2023/05/21 08:30:55;;;;;;;8.68;5.45;;;;;;;24.78;40.15;99192.31;4317984;33;34830;-90
2023/05/21 08:33:23;;;;;;;9.70;5.43;;;;;;;24.30;40.95;99196.16;4316657;33;34725;-93
2023/05/21 08:36:00;;;;;;;10.93;4.93;;;;;;;24.12;41.27;99197.78;4314008;33;34761;-95
2023/05/21 08:38:28;;;;;;;8.35;4.87;;;;;;;24.49;41.20;99197.09;4332230;33;33558;-95
2023/05/21 08:40:58;;;;;;;11.70;5.47;;;;;;;24.57;40.13;99188.81;4322851;33;34759;-95
2023/05/21 08:43:26;;;;;;;10.02;5.05;;;;;;;24.88;39.63;99189.16;4318874;33;33134;-95
2023/05/21 08:45:56;;;;;;;12.80;5.10;;;;;;;25.37;39.40;99186.06;4332693;33;34613;-94
2023/05/21 08:48:24;;;;;;;8.38;5.03;;;;;;;25.75;40.65;99188.66;4334491;33;33286;-96
2023/05/21 08:51:02;;;;;;;8.65;4.82;;;;;;;25.48;40.09;99197.88;4319756;33;33627;-94
2023/05/21 08:53:33;;;;;;;8.63;5.45;;;;;;;25.75;40.63;99194.84;4325733;33;33783;-95
2023/05/21 08:56:01;;;;;;;12.45;5.15;;;;;;;25.95;37.77;99188.59;4331374;33;34451;-95
2023/05/21 08:58:37;;;;;;;11.25;4.93;;;;;;;26.05;37.02;99192.47;4331518;32;33390;-95
2023/05/21 09:01:05;;;;;;;9.18;5.32;;;;;;;25.55;38.85;99195.81;4330623;33;34759;-95
2023/05/21 09:03:38;;;;;;;9.52;4.95;;;;;;;25.20;37.82;99190.38;4333332;33;34233;-96
2023/05/21 09:06:10;;;;;;;10.13;4.68;;;;;;;25.22;38.01;99177.03;4331441;33;34910;-96
2023/05/21 09:08:42;;;;;;;7.35;4.95;;;;;;;25.53;37.69;99195.00;4330753;33;33034;-94
2023/05/21 09:11:10;;;;;;;7.65;5.03;;;;;;;25.18;38.94;99186.91;4326521;33;33701;-95
2023/05/21 09:13:39;;;;;;;10.68;5.50;;;;;;;25.38;39.03;99185.13;4320358;33;34555;-93
2023/05/21 09:16:08;;;;;;;11.32;4.90;;;;;;;25.93;38.26;99182.47;4326771;33;34870;-91
2023/05/21 09:18:36;;;;;;;8.77;5.15;;;;;;;25.96;37.81;99183.19;4320451;33;32940;-92
2023/05/21 09:21:28;;;;;;;10.25;4.65;;;;;;;25.65;37.35;99175.84;4317085;33;32741;-90
2023/05/21 09:23:57;;;;;;;9.52;5.05;;;;;;;26.53;39.61;99177.66;4312756;33;34815;-92
2023/05/21 09:26:25;;;;;;;8.38;5.50;;;;;;;26.57;36.08;99186.34;4330982;33;33192;-93
2023/05/21 09:28:58;;;;;;;9.02;5.10;;;;;;;26.82;36.66;99180.56;4317853;33;33659;-90
2023/05/21 09:31:28;;;;;;;7.70;4.93;;;;;;;26.62;35.43;99186.94;4291868;33;34170;-89
2023/05/21 09:33:55;;;;;;;8.13;4.90;;;;;;;26.73;33.70;99179.25;4314890;33;33913;-91
2023/05/21 09:36:24;;;;;;;7.40;5.35;;;;;;;26.99;35.16;99183.19;4326793;33;32934;-92
2023/05/21 09:38:53;;;;;;;7.95;4.43;;;;;;;26.77;35.26;99188.78;4306326;33;32966;-90
2023/05/21 09:41:30;;;;;;;10.18;5.10;;;;;;;26.73;35.24;99175.75;4316290;33;35154;-91
2023/05/21 09:43:59;;;;;;;8.10;4.90;;;;;;;25.82;36.53;99190.97;4315228;33;34046;-91
2023/05/21 09:46:36;;;;;;;8.45;4.95;;;;;;;26.42;35.84;99187.97;4309161;33;34762;-92
2023/05/21 09:49:05;;;;;;;8.77;4.95;;;;;;;26.45;35.78;99190.47;4328485;33;33566;-91
2023/05/21 09:51:37;;;;;;;10.90;4.87;;;;;;;26.69;35.79;99186.53;4317029;33;33942;-89
2023/05/21 09:54:04;;;;;;;9.02;4.62;;;;;;;26.56;35.80;99190.81;4325091;33;35180;-93
2023/05/21 09:56:33;;;;;;;8.52;4.60;;;;;;;27.04;34.96;99186.44;4315019;33;33885;-92
2023/05/21 09:59:05;;;;;;;9.73;4.62;;;;;;;27.07;35.18;99180.09;4323365;33;33628;-91
2023/05/21 10:01:33;;;;;;;7.22;4.60;;;;;;;27.52;35.43;99175.88;4320137;33;33535;-91
2023/05/21 10:04:06;;;;;;;8.82;5.12;;;;;;;27.60;34.97;99178.94;4320313;33;34149;-91
2023/05/21 10:06:37;;;;;;;6.35;4.07;;;;;;;28.10;34.91;99162.69;4326918;33;33803;-92
2023/05/21 10:09:14;;;;;;;8.35;4.25;;;;;;;27.23;34.84;99167.69;4317575;33;33316;-93
2023/05/21 10:11:43;;;;;;;7.10;4.47;;;;;;;27.62;34.85;99171.75;4325147;33;33501;-93
2023/05/21 10:14:22;;;;;;;6.10;3.90;;;;;;;27.52;34.33;99171.38;4344095;33;34153;-91
2023/05/21 10:16:51;;;;;;;6.95;3.90;;;;;;;27.16;35.08;99164.53;4319836;33;34581;-91
2023/05/21 10:19:19;;;;;;;8.40;4.62;;;;;;;27.17;33.26;99171.56;4314953;33;33535;-92
2023/05/21 10:21:47;;;;;;;6.22;4.10;;;;;;;27.17;33.66;99160.91;4326351;33;34363;-92
2023/05/21 10:24:17;;;;;;;6.93;4.15;;;;;;;27.68;33.25;99160.72;4327972;33;34281;-92
2023/05/21 10:26:45;;;;;;;7.82;4.15;;;;;;;27.39;33.23;99165.06;4317300;33;34839;-93
2023/05/21 10:29:13;;;;;;;8.70;4.60;;;;;;;27.20;33.47;99159.00;4315156;33;34548;-93
2023/05/21 10:31:48;;;;;;;7.35;4.30;;;;;;;27.45;33.38;99158.50;4314629;33;33454;-92
2023/05/21 10:34:15;;;;;;;8.98;4.18;;;;;;;27.26;34.01;99158.69;4315947;33;33452;-94
2023/05/21 10:36:43;;;;;;;8.75;4.55;;;;;;;27.69;33.01;99150.91;4315195;33;34776;-93
2023/05/21 10:39:11;;;;;;;8.60;4.20;;;;;;;27.87;32.92;99150.72;4322127;33;34216;-95
2023/05/21 10:42:07;;;;;;;10.65;4.12;;;;;;;27.74;32.77;99160.41;4316121;33;34253;-95
2023/05/21 10:45:05;;;;;;;12.37;5.18;;;;;;;27.12;33.17;99168.31;4314815;33;34826;-93
2023/05/21 10:47:44;;;;;;;7.80;4.25;;;;;;;27.73;31.93;99152.44;4315785;33;33750;-94
2023/05/21 10:50:30;;;;;;;7.95;4.35;;;;;;;27.58;32.35;99139.09;4314477;33;32182;-93
2023/05/21 10:53:19;;;;;;;8.25;4.22;;;;;;;27.57;32.81;99148.00;4330230;33;33857;-94
2023/05/21 10:56:13;;;;;;;7.15;4.65;;;;;;;27.80;31.32;99143.19;4317475;33;33649;-92
2023/05/21 10:58:58;;;;;;;6.40;4.18;;;;;;;27.81;32.22;99145.78;4320430;33;35128;-92
2023/05/21 11:01:32;;;;;;;6.47;4.45;;;;;;;27.63;32.33;99131.69;4314340;33;33308;-93
2023/05/21 11:04:01;;;;;;;8.43;4.07;;;;;;;27.85;32.94;99143.81;4314208;33;34150;-91
2023/05/21 11:06:28;;;;;;;9.88;4.70;;;;;;;27.94;32.04;99135.25;4318942;33;34192;-95
2023/05/21 11:08:56;;;;;;;6.62;3.80;;;;;;;28.40;31.71;99134.34;4318124;33;34104;-90
2023/05/21 11:11:44;;;;;;;6.30;3.87;;;;;;;28.06;31.58;99134.53;4328454;33;33877;-90
2023/05/21 11:14:35;;;;;;;6.28;4.20;;;;;;;27.80;32.65;99135.19;4329957;33;33197;-89
2023/05/21 11:17:09;;;;;;;7.45;4.50;;;;;;;27.98;33.24;99139.44;4335610;33;34392;-91
2023/05/21 11:19:36;;;;;;;10.43;4.18;;;;;;;28.09;32.41;99137.00;4333813;33;34175;-90
2023/05/21 11:22:25;;;;;;;9.70;4.55;;;;;;;28.11;31.92;99137.78;4318012;33;31187;-91
2023/05/21 11:24:55;;;;;;;10.57;4.32;;;;;;;28.17;32.67;99130.38;4316814;33;33183;-91
2023/05/21 11:27:36;;;;;;;11.00;3.83;;;;;;;27.94;32.10;99129.94;4328827;33;34159;-91
2023/05/21 11:30:06;;;;;;;7.12;4.32;;;;;;;27.77;32.78;99125.59;4325563;33;34981;-90
2023/05/21 11:32:38;;;;;;;6.97;3.72;;;;;;;27.99;33.27;99129.66;4314839;33;34523;-89
2023/05/21 11:35:06;;;;;;;7.28;3.85;;;;;;;28.27;36.18;99126.19;4314161;33;33572;-90
2023/05/21 11:37:35;;;;;;;8.90;4.62;;;;;;;28.58;33.58;99126.06;4323025;33;33933;-90
2023/05/21 11:40:18;;;;;;;6.22;3.90;;;;;;;28.51;32.95;99119.38;4328214;33;34217;-89